sensor_id;sensor_type;location;lat;lon;timestamp;P1;durP1;ratioP1;P2;durP2;ratioP2
479;SDS011;226;48.606;9.096;2022-09-09T00:01:19;1.50;;;1.40;;
479;SDS011;226;48.606;9.096;2022-09-09T00:03:52;1.30;;;1.20;;
479;SDS011;226;48.606;9.096;2022-09-09T00:06:23;2.13;;;1.23;;
479;SDS011;226;48.606;9.096;2022-09-09T00:08:57;0.80;;;0.80;;
479;SDS011;226;48.606;9.096;2022-09-09T00:11:28;1.37;;;1.10;;
479;SDS011;226;48.606;9.096;2022-09-09T00:14:00;1.00;;;1.00;;
479;SDS011;226;48.606;9.096;2022-09-09T00:16:32;1.00;;;1.00;;
479;SDS011;226;48.606;9.096;2022-09-09T00:19:05;9.00;;;1.37;;
479;SDS011;226;48.606;9.096;2022-09-09T00:21:34;1.50;;;1.40;;
479;SDS011;226;48.606;9.096;2022-09-09T00:24:08;1.00;;;1.00;;
479;SDS011;226;48.606;9.096;2022-09-09T00:26:38;3.40;;;1.10;;
479;SDS011;226;48.606;9.096;2022-09-09T00:29:13;0.80;;;0.80;;
479;SDS011;226;48.606;9.096;2022-09-09T00:31:42;1.37;;;1.20;;
479;SDS011;226;48.606;9.096;2022-09-09T00:34:11;0.77;;;0.77;;
479;SDS011;226;48.606;9.096;2022-09-09T00:36:40;1.70;;;1.27;;
479;SDS011;226;48.606;9.096;2022-09-09T00:39:23;2.73;;;1.00;;
479;SDS011;226;48.606;9.096;2022-09-09T00:41:55;1.43;;;1.33;;
479;SDS011;226;48.606;9.096;2022-09-09T00:44:30;0.90;;;0.90;;
479;SDS011;226;48.606;9.096;2022-09-09T00:47:04;1.20;;;1.20;;
479;SDS011;226;48.606;9.096;2022-09-09T00:49:40;2.20;;;1.00;;
479;SDS011;226;48.606;9.096;2022-09-09T00:52:17;1.80;;;1.10;;
479;SDS011;226;48.606;9.096;2022-09-09T00:54:51;5.10;;;1.60;;
479;SDS011;226;48.606;9.096;2022-09-09T00:57:23;1.93;;;1.43;;
479;SDS011;226;48.606;9.096;2022-09-09T01:00:00;1.30;;;1.20;;
479;SDS011;226;48.606;9.096;2022-09-09T01:02:32;6.10;;;1.50;;
479;SDS011;226;48.606;9.096;2022-09-09T01:05:12;4.00;;;3.23;;
479;SDS011;226;48.606;9.096;2022-09-09T01:07:42;9.60;;;1.43;;
479;SDS011;226;48.606;9.096;2022-09-09T01:10:15;1.23;;;1.23;;
479;SDS011;226;48.606;9.096;2022-09-09T01:12:46;1.00;;;1.00;;
479;SDS011;226;48.606;9.096;2022-09-09T01:15:17;1.60;;;1.17;;
479;SDS011;226;48.606;9.096;2022-09-09T01:17:50;3.27;;;1.30;;
479;SDS011;226;48.606;9.096;2022-09-09T01:20:20;1.87;;;1.00;;
479;SDS011;226;48.606;9.096;2022-09-09T01:23:01;1.37;;;1.30;;
479;SDS011;226;48.606;9.096;2022-09-09T01:28:20;1.60;;;1.50;;
479;SDS011;226;48.606;9.096;2022-09-09T01:30:50;3.60;;;1.47;;
479;SDS011;226;48.606;9.096;2022-09-09T01:33:18;0.90;;;0.90;;
479;SDS011;226;48.606;9.096;2022-09-09T01:35:48;4.03;;;1.60;;
479;SDS011;226;48.606;9.096;2022-09-09T01:38:17;3.03;;;1.67;;
479;SDS011;226;48.606;9.096;2022-09-09T01:40:46;12.13;;;1.50;;
479;SDS011;226;48.606;9.096;2022-09-09T01:43:15;2.80;;;1.10;;
479;SDS011;226;48.606;9.096;2022-09-09T01:45:44;3.37;;;1.10;;
479;SDS011;226;48.606;9.096;2022-09-09T01:48:14;1.20;;;1.10;;
479;SDS011;226;48.606;9.096;2022-09-09T01:50:42;3.50;;;1.33;;
479;SDS011;226;48.606;9.096;2022-09-09T01:53:11;1.20;;;1.10;;
479;SDS011;226;48.606;9.096;2022-09-09T01:55:40;2.10;;;1.40;;
479;SDS011;226;48.606;9.096;2022-09-09T01:58:12;2.53;;;2.20;;
479;SDS011;226;48.606;9.096;2022-09-09T02:00:45;0.90;;;0.90;;
479;SDS011;226;48.606;9.096;2022-09-09T02:03:16;1.07;;;0.97;;
479;SDS011;226;48.606;9.096;2022-09-09T02:05:49;1.00;;;1.00;;
479;SDS011;226;48.606;9.096;2022-09-09T02:08:21;1.30;;;1.20;;
479;SDS011;226;48.606;9.096;2022-09-09T02:10:53;1.30;;;1.13;;
479;SDS011;226;48.606;9.096;2022-09-09T02:13:23;1.07;;;1.07;;
479;SDS011;226;48.606;9.096;2022-09-09T02:15:53;5.60;;;1.40;;
479;SDS011;226;48.606;9.096;2022-09-09T02:18:24;1.20;;;1.20;;
479;SDS011;226;48.606;9.096;2022-09-09T02:20:53;1.67;;;1.27;;
479;SDS011;226;48.606;9.096;2022-09-09T02:23:21;2.83;;;1.60;;
479;SDS011;226;48.606;9.096;2022-09-09T02:25:50;3.50;;;1.20;;
479;SDS011;226;48.606;9.096;2022-09-09T02:28:20;1.40;;;1.30;;
479;SDS011;226;48.606;9.096;2022-09-09T02:30:50;1.30;;;1.20;;
479;SDS011;226;48.606;9.096;2022-09-09T02:33:23;3.57;;;1.70;;
479;SDS011;226;48.606;9.096;2022-09-09T02:35:52;1.70;;;1.30;;
479;SDS011;226;48.606;9.096;2022-09-09T02:38:23;5.60;;;1.63;;
479;SDS011;226;48.606;9.096;2022-09-09T02:40:54;2.03;;;1.43;;
479;SDS011;226;48.606;9.096;2022-09-09T02:43:24;1.10;;;1.00;;
479;SDS011;226;48.606;9.096;2022-09-09T02:45:54;1.50;;;1.40;;
479;SDS011;226;48.606;9.096;2022-09-09T02:48:28;2.17;;;0.97;;
479;SDS011;226;48.606;9.096;2022-09-09T02:50:59;1.40;;;1.30;;
479;SDS011;226;48.606;9.096;2022-09-09T02:53:38;1.70;;;1.53;;
479;SDS011;226;48.606;9.096;2022-09-09T02:56:08;1.10;;;1.00;;
479;SDS011;226;48.606;9.096;2022-09-09T02:58:39;1.97;;;1.20;;
479;SDS011;226;48.606;9.096;2022-09-09T03:01:07;2.40;;;1.90;;
479;SDS011;226;48.606;9.096;2022-09-09T03:03:37;0.97;;;0.80;;
479;SDS011;226;48.606;9.096;2022-09-09T03:06:07;3.80;;;1.30;;
479;SDS011;226;48.606;9.096;2022-09-09T03:08:36;0.90;;;0.80;;
479;SDS011;226;48.606;9.096;2022-09-09T03:11:04;2.63;;;1.13;;
479;SDS011;226;48.606;9.096;2022-09-09T03:13:32;1.30;;;1.20;;
479;SDS011;226;48.606;9.096;2022-09-09T03:16:01;1.23;;;1.20;;
479;SDS011;226;48.606;9.096;2022-09-09T03:18:30;1.03;;;0.90;;
479;SDS011;226;48.606;9.096;2022-09-09T03:21:00;2.07;;;1.40;;
479;SDS011;226;48.606;9.096;2022-09-09T03:23:28;2.40;;;1.60;;
479;SDS011;226;48.606;9.096;2022-09-09T03:25:56;2.53;;;2.30;;
479;SDS011;226;48.606;9.096;2022-09-09T03:28:25;4.50;;;1.87;;
479;SDS011;226;48.606;9.096;2022-09-09T03:30:58;1.10;;;1.07;;
479;SDS011;226;48.606;9.096;2022-09-09T03:33:26;2.87;;;1.53;;
479;SDS011;226;48.606;9.096;2022-09-09T03:35:55;1.27;;;1.17;;
479;SDS011;226;48.606;9.096;2022-09-09T03:38:25;1.33;;;1.27;;
479;SDS011;226;48.606;9.096;2022-09-09T03:40:55;0.93;;;0.93;;
479;SDS011;226;48.606;9.096;2022-09-09T03:43:24;4.10;;;1.37;;
479;SDS011;226;48.606;9.096;2022-09-09T03:45:53;1.40;;;1.37;;
479;SDS011;226;48.606;9.096;2022-09-09T03:48:23;4.57;;;1.43;;
479;SDS011;226;48.606;9.096;2022-09-09T03:50:53;4.90;;;1.40;;
479;SDS011;226;48.606;9.096;2022-09-09T03:53:25;4.90;;;1.20;;
479;SDS011;226;48.606;9.096;2022-09-09T03:55:54;10.47;;;1.27;;
479;SDS011;226;48.606;9.096;2022-09-09T03:58:26;5.20;;;1.20;;
479;SDS011;226;48.606;9.096;2022-09-09T04:00:55;1.17;;;0.87;;
479;SDS011;226;48.606;9.096;2022-09-09T04:03:24;1.90;;;1.80;;
479;SDS011;226;48.606;9.096;2022-09-09T04:05:54;1.70;;;1.43;;
479;SDS011;226;48.606;9.096;2022-09-09T04:08:22;1.87;;;1.67;;
479;SDS011;226;48.606;9.096;2022-09-09T04:10:53;1.27;;;1.17;;
479;SDS011;226;48.606;9.096;2022-09-09T04:13:24;1.20;;;1.07;;
479;SDS011;226;48.606;9.096;2022-09-09T04:15:53;1.20;;;1.07;;
479;SDS011;226;48.606;9.096;2022-09-09T04:18:21;1.13;;;1.10;;
479;SDS011;226;48.606;9.096;2022-09-09T04:20:50;4.23;;;1.40;;
479;SDS011;226;48.606;9.096;2022-09-09T04:23:19;1.70;;;1.40;;
479;SDS011;226;48.606;9.096;2022-09-09T04:25:48;1.40;;;1.17;;
479;SDS011;226;48.606;9.096;2022-09-09T04:28:18;1.60;;;1.47;;
479;SDS011;226;48.606;9.096;2022-09-09T04:30:47;1.70;;;1.10;;
479;SDS011;226;48.606;9.096;2022-09-09T04:33:15;1.77;;;1.67;;
479;SDS011;226;48.606;9.096;2022-09-09T04:35:44;1.90;;;1.43;;
479;SDS011;226;48.606;9.096;2022-09-09T04:38:13;2.20;;;1.83;;
479;SDS011;226;48.606;9.096;2022-09-09T04:40:42;1.20;;;1.20;;
479;SDS011;226;48.606;9.096;2022-09-09T04:43:10;1.70;;;1.60;;
479;SDS011;226;48.606;9.096;2022-09-09T04:45:41;1.90;;;1.80;;
479;SDS011;226;48.606;9.096;2022-09-09T04:48:09;1.80;;;1.57;;
479;SDS011;226;48.606;9.096;2022-09-09T04:50:37;1.40;;;1.40;;
479;SDS011;226;48.606;9.096;2022-09-09T04:53:06;1.30;;;1.20;;
479;SDS011;226;48.606;9.096;2022-09-09T04:55:35;2.27;;;1.10;;
479;SDS011;226;48.606;9.096;2022-09-09T04:58:03;1.33;;;1.23;;
479;SDS011;226;48.606;9.096;2022-09-09T05:00:32;1.67;;;1.57;;
479;SDS011;226;48.606;9.096;2022-09-09T05:03:03;1.53;;;1.17;;
479;SDS011;226;48.606;9.096;2022-09-09T05:05:31;1.40;;;1.30;;
479;SDS011;226;48.606;9.096;2022-09-09T05:08:01;2.53;;;1.40;;
479;SDS011;226;48.606;9.096;2022-09-09T05:10:30;1.33;;;1.27;;
479;SDS011;226;48.606;9.096;2022-09-09T05:12:58;2.30;;;1.10;;
479;SDS011;226;48.606;9.096;2022-09-09T05:15:26;1.40;;;1.30;;
479;SDS011;226;48.606;9.096;2022-09-09T05:17:56;2.07;;;1.20;;
479;SDS011;226;48.606;9.096;2022-09-09T05:20:26;1.17;;;1.17;;
479;SDS011;226;48.606;9.096;2022-09-09T05:22:55;6.33;;;1.60;;
479;SDS011;226;48.606;9.096;2022-09-09T05:25:23;1.10;;;1.10;;
479;SDS011;226;48.606;9.096;2022-09-09T05:27:52;1.30;;;1.17;;
479;SDS011;226;48.606;9.096;2022-09-09T05:30:21;2.00;;;1.63;;
479;SDS011;226;48.606;9.096;2022-09-09T05:32:50;1.57;;;1.47;;
479;SDS011;226;48.606;9.096;2022-09-09T05:35:19;1.67;;;1.27;;
479;SDS011;226;48.606;9.096;2022-09-09T05:37:48;0.90;;;0.90;;
479;SDS011;226;48.606;9.096;2022-09-09T05:40:16;1.37;;;1.27;;
479;SDS011;226;48.606;9.096;2022-09-09T05:42:45;1.00;;;1.00;;
479;SDS011;226;48.606;9.096;2022-09-09T05:45:13;1.43;;;1.33;;
479;SDS011;226;48.606;9.096;2022-09-09T05:47:41;1.30;;;1.20;;
479;SDS011;226;48.606;9.096;2022-09-09T05:50:09;1.73;;;1.20;;
479;SDS011;226;48.606;9.096;2022-09-09T05:52:40;4.93;;;1.40;;
479;SDS011;226;48.606;9.096;2022-09-09T05:55:09;1.50;;;1.40;;
479;SDS011;226;48.606;9.096;2022-09-09T05:57:37;1.57;;;1.40;;
479;SDS011;226;48.606;9.096;2022-09-09T06:00:07;1.93;;;1.83;;
479;SDS011;226;48.606;9.096;2022-09-09T06:02:35;1.30;;;1.20;;
479;SDS011;226;48.606;9.096;2022-09-09T06:05:05;1.33;;;1.10;;
479;SDS011;226;48.606;9.096;2022-09-09T06:07:34;1.70;;;1.57;;
479;SDS011;226;48.606;9.096;2022-09-09T06:10:03;1.53;;;1.40;;
479;SDS011;226;48.606;9.096;2022-09-09T06:12:33;1.73;;;1.10;;
479;SDS011;226;48.606;9.096;2022-09-09T06:15:02;3.13;;;1.50;;
479;SDS011;226;48.606;9.096;2022-09-09T06:17:30;1.60;;;1.50;;
479;SDS011;226;48.606;9.096;2022-09-09T06:19:58;1.20;;;1.10;;
479;SDS011;226;48.606;9.096;2022-09-09T06:22:26;1.00;;;1.00;;
479;SDS011;226;48.606;9.096;2022-09-09T06:24:55;2.07;;;1.27;;
479;SDS011;226;48.606;9.096;2022-09-09T06:27:23;2.20;;;1.17;;
479;SDS011;226;48.606;9.096;2022-09-09T06:29:52;2.80;;;1.10;;
479;SDS011;226;48.606;9.096;2022-09-09T06:32:21;1.23;;;1.13;;
479;SDS011;226;48.606;9.096;2022-09-09T06:34:49;2.67;;;1.07;;
479;SDS011;226;48.606;9.096;2022-09-09T06:37:17;2.87;;;1.30;;
479;SDS011;226;48.606;9.096;2022-09-09T06:39:46;1.60;;;1.17;;
479;SDS011;226;48.606;9.096;2022-09-09T06:42:14;1.33;;;0.97;;
479;SDS011;226;48.606;9.096;2022-09-09T06:44:43;1.50;;;1.40;;
479;SDS011;226;48.606;9.096;2022-09-09T06:47:12;1.53;;;1.37;;
479;SDS011;226;48.606;9.096;2022-09-09T06:49:40;1.77;;;1.37;;
479;SDS011;226;48.606;9.096;2022-09-09T06:52:13;2.13;;;1.50;;
479;SDS011;226;48.606;9.096;2022-09-09T06:54:44;1.00;;;1.00;;
479;SDS011;226;48.606;9.096;2022-09-09T06:57:12;1.20;;;1.20;;
479;SDS011;226;48.606;9.096;2022-09-09T07:00:00;1.10;;;1.10;;
479;SDS011;226;48.606;9.096;2022-09-09T07:02:30;1.70;;;1.23;;
479;SDS011;226;48.606;9.096;2022-09-09T07:05:05;1.63;;;1.53;;
479;SDS011;226;48.606;9.096;2022-09-09T07:07:34;1.30;;;1.03;;
479;SDS011;226;48.606;9.096;2022-09-09T07:10:03;1.23;;;0.90;;
479;SDS011;226;48.606;9.096;2022-09-09T07:12:31;1.37;;;1.27;;
479;SDS011;226;48.606;9.096;2022-09-09T07:14:59;1.20;;;1.10;;
479;SDS011;226;48.606;9.096;2022-09-09T07:17:27;1.17;;;1.07;;
479;SDS011;226;48.606;9.096;2022-09-09T07:19:57;1.00;;;1.00;;
479;SDS011;226;48.606;9.096;2022-09-09T07:22:27;2.20;;;1.10;;
479;SDS011;226;48.606;9.096;2022-09-09T07:24:55;3.03;;;1.53;;
479;SDS011;226;48.606;9.096;2022-09-09T07:27:23;2.53;;;1.40;;
479;SDS011;226;48.606;9.096;2022-09-09T07:29:52;1.20;;;1.10;;
479;SDS011;226;48.606;9.096;2022-09-09T07:32:21;1.40;;;1.30;;
479;SDS011;226;48.606;9.096;2022-09-09T07:34:49;1.57;;;1.20;;
479;SDS011;226;48.606;9.096;2022-09-09T07:37:19;3.80;;;1.53;;
479;SDS011;226;48.606;9.096;2022-09-09T07:39:48;2.60;;;1.40;;
479;SDS011;226;48.606;9.096;2022-09-09T07:42:17;5.57;;;1.40;;
479;SDS011;226;48.606;9.096;2022-09-09T07:44:45;4.77;;;1.13;;
479;SDS011;226;48.606;9.096;2022-09-09T07:47:14;2.57;;;1.30;;
479;SDS011;226;48.606;9.096;2022-09-09T07:49:42;1.30;;;1.20;;
479;SDS011;226;48.606;9.096;2022-09-09T07:52:12;9.30;;;1.30;;
479;SDS011;226;48.606;9.096;2022-09-09T07:54:46;2.63;;;1.00;;
479;SDS011;226;48.606;9.096;2022-09-09T07:57:14;4.30;;;0.93;;
479;SDS011;226;48.606;9.096;2022-09-09T07:59:44;2.73;;;1.87;;
479;SDS011;226;48.606;9.096;2022-09-09T08:02:13;1.00;;;1.00;;
479;SDS011;226;48.606;9.096;2022-09-09T08:04:41;1.97;;;1.40;;
479;SDS011;226;48.606;9.096;2022-09-09T08:07:09;0.87;;;0.87;;
479;SDS011;226;48.606;9.096;2022-09-09T08:09:37;1.33;;;1.23;;
479;SDS011;226;48.606;9.096;2022-09-09T08:12:07;1.13;;;1.10;;
479;SDS011;226;48.606;9.096;2022-09-09T08:14:35;0.90;;;0.90;;
479;SDS011;226;48.606;9.096;2022-09-09T08:17:04;1.80;;;0.97;;
479;SDS011;226;48.606;9.096;2022-09-09T08:19:32;1.30;;;1.13;;
479;SDS011;226;48.606;9.096;2022-09-09T08:22:02;1.60;;;1.00;;
479;SDS011;226;48.606;9.096;2022-09-09T08:24:30;1.07;;;0.90;;
479;SDS011;226;48.606;9.096;2022-09-09T08:26:58;0.97;;;0.97;;
479;SDS011;226;48.606;9.096;2022-09-09T08:29:29;7.87;;;1.50;;
479;SDS011;226;48.606;9.096;2022-09-09T08:31:57;1.17;;;1.13;;
479;SDS011;226;48.606;9.096;2022-09-09T08:34:26;1.40;;;1.30;;
479;SDS011;226;48.606;9.096;2022-09-09T08:36:55;4.43;;;1.13;;
479;SDS011;226;48.606;9.096;2022-09-09T08:39:23;3.50;;;1.70;;
479;SDS011;226;48.606;9.096;2022-09-09T08:41:57;1.40;;;1.30;;
479;SDS011;226;48.606;9.096;2022-09-09T08:44:31;2.87;;;1.63;;
479;SDS011;226;48.606;9.096;2022-09-09T08:47:04;1.53;;;1.33;;
479;SDS011;226;48.606;9.096;2022-09-09T08:49:43;1.23;;;1.13;;
479;SDS011;226;48.606;9.096;2022-09-09T08:52:15;1.53;;;1.00;;
479;SDS011;226;48.606;9.096;2022-09-09T08:54:44;1.23;;;0.97;;
479;SDS011;226;48.606;9.096;2022-09-09T08:57:18;1.07;;;1.00;;
479;SDS011;226;48.606;9.096;2022-09-09T08:59:49;2.30;;;1.10;;
479;SDS011;226;48.606;9.096;2022-09-09T09:02:20;1.10;;;1.00;;
479;SDS011;226;48.606;9.096;2022-09-09T09:04:53;3.90;;;1.10;;
479;SDS011;226;48.606;9.096;2022-09-09T09:07:28;1.83;;;0.90;;
479;SDS011;226;48.606;9.096;2022-09-09T09:10:02;1.00;;;0.90;;
479;SDS011;226;48.606;9.096;2022-09-09T09:12:52;1.33;;;1.23;;
479;SDS011;226;48.606;9.096;2022-09-09T09:15:24;5.70;;;1.20;;
479;SDS011;226;48.606;9.096;2022-09-09T09:17:58;0.90;;;0.90;;
479;SDS011;226;48.606;9.096;2022-09-09T09:20:28;8.63;;;1.10;;
479;SDS011;226;48.606;9.096;2022-09-09T09:23:00;1.60;;;0.73;;
479;SDS011;226;48.606;9.096;2022-09-09T09:25:31;1.43;;;1.37;;
479;SDS011;226;48.606;9.096;2022-09-09T09:28:02;1.20;;;1.07;;
479;SDS011;226;48.606;9.096;2022-09-09T09:30:34;1.13;;;1.03;;
479;SDS011;226;48.606;9.096;2022-09-09T09:33:05;1.27;;;1.17;;
479;SDS011;226;48.606;9.096;2022-09-09T09:35:34;1.67;;;1.43;;
479;SDS011;226;48.606;9.096;2022-09-09T09:38:11;0.93;;;0.93;;
479;SDS011;226;48.606;9.096;2022-09-09T09:41:01;1.47;;;1.10;;
479;SDS011;226;48.606;9.096;2022-09-09T09:43:29;0.80;;;0.80;;
479;SDS011;226;48.606;9.096;2022-09-09T09:46:00;0.93;;;0.90;;
479;SDS011;226;48.606;9.096;2022-09-09T09:48:44;0.93;;;0.90;;
479;SDS011;226;48.606;9.096;2022-09-09T09:51:13;4.43;;;1.33;;
479;SDS011;226;48.606;9.096;2022-09-09T09:53:42;1.47;;;0.90;;
479;SDS011;226;48.606;9.096;2022-09-09T09:56:12;3.23;;;1.07;;
479;SDS011;226;48.606;9.096;2022-09-09T09:58:48;1.13;;;0.80;;
479;SDS011;226;48.606;9.096;2022-09-09T10:01:22;0.80;;;0.70;;
479;SDS011;226;48.606;9.096;2022-09-09T10:03:52;0.50;;;0.50;;
479;SDS011;226;48.606;9.096;2022-09-09T10:06:29;2.57;;;0.60;;
479;SDS011;226;48.606;9.096;2022-09-09T10:08:58;2.97;;;1.30;;
479;SDS011;226;48.606;9.096;2022-09-09T10:11:35;1.03;;;0.90;;
479;SDS011;226;48.606;9.096;2022-09-09T10:14:08;7.07;;;0.70;;
479;SDS011;226;48.606;9.096;2022-09-09T10:16:46;0.77;;;0.77;;
479;SDS011;226;48.606;9.096;2022-09-09T10:19:19;1.07;;;0.83;;
479;SDS011;226;48.606;9.096;2022-09-09T10:21:55;3.40;;;0.60;;
479;SDS011;226;48.606;9.096;2022-09-09T10:24:30;5.33;;;0.80;;
479;SDS011;226;48.606;9.096;2022-09-09T10:27:05;0.70;;;0.70;;
479;SDS011;226;48.606;9.096;2022-09-09T10:29:42;2.83;;;0.63;;
479;SDS011;226;48.606;9.096;2022-09-09T10:32:27;0.90;;;0.80;;
479;SDS011;226;48.606;9.096;2022-09-09T10:34:58;2.20;;;0.67;;
479;SDS011;226;48.606;9.096;2022-09-09T10:37:34;0.60;;;0.60;;
479;SDS011;226;48.606;9.096;2022-09-09T10:40:11;0.70;;;0.70;;
479;SDS011;226;48.606;9.096;2022-09-09T10:42:43;1.87;;;0.80;;
479;SDS011;226;48.606;9.096;2022-09-09T10:45:15;1.57;;;0.70;;
479;SDS011;226;48.606;9.096;2022-09-09T10:47:52;0.70;;;0.70;;
479;SDS011;226;48.606;9.096;2022-09-09T10:50:29;0.70;;;0.50;;
479;SDS011;226;48.606;9.096;2022-09-09T10:53:22;0.70;;;0.70;;
479;SDS011;226;48.606;9.096;2022-09-09T10:55:53;0.73;;;0.73;;
479;SDS011;226;48.606;9.096;2022-09-09T10:58:24;1.70;;;1.60;;
479;SDS011;226;48.606;9.096;2022-09-09T11:00:54;0.80;;;0.80;;
479;SDS011;226;48.606;9.096;2022-09-09T11:03:26;3.77;;;0.63;;
479;SDS011;226;48.606;9.096;2022-09-09T11:05:57;0.70;;;0.70;;
479;SDS011;226;48.606;9.096;2022-09-09T11:08:26;2.10;;;0.73;;
479;SDS011;226;48.606;9.096;2022-09-09T11:10:58;1.17;;;1.03;;
479;SDS011;226;48.606;9.096;2022-09-09T11:13:29;11.73;;;1.73;;
479;SDS011;226;48.606;9.096;2022-09-09T11:16:00;0.87;;;0.87;;
479;SDS011;226;48.606;9.096;2022-09-09T11:18:31;0.73;;;0.73;;
479;SDS011;226;48.606;9.096;2022-09-09T11:21:00;1.00;;;1.00;;
479;SDS011;226;48.606;9.096;2022-09-09T11:23:32;1.77;;;1.20;;
479;SDS011;226;48.606;9.096;2022-09-09T11:26:07;7.43;;;1.00;;
479;SDS011;226;48.606;9.096;2022-09-09T11:28:41;1.00;;;0.90;;
479;SDS011;226;48.606;9.096;2022-09-09T11:31:21;4.73;;;0.73;;
479;SDS011;226;48.606;9.096;2022-09-09T11:36:59;1.07;;;0.70;;
479;SDS011;226;48.606;9.096;2022-09-09T11:39:36;2.20;;;0.60;;
479;SDS011;226;48.606;9.096;2022-09-09T11:42:07;1.07;;;0.77;;
479;SDS011;226;48.606;9.096;2022-09-09T11:44:42;0.80;;;0.57;;
479;SDS011;226;48.606;9.096;2022-09-09T11:47:15;0.50;;;0.50;;
479;SDS011;226;48.606;9.096;2022-09-09T11:49:44;0.87;;;0.63;;
479;SDS011;226;48.606;9.096;2022-09-09T11:52:18;0.50;;;0.40;;
479;SDS011;226;48.606;9.096;2022-09-09T11:54:49;0.70;;;0.70;;
479;SDS011;226;48.606;9.096;2022-09-09T11:57:22;0.40;;;0.40;;
479;SDS011;226;48.606;9.096;2022-09-09T11:59:52;1.87;;;0.70;;
479;SDS011;226;48.606;9.096;2022-09-09T12:02:22;0.70;;;0.70;;
479;SDS011;226;48.606;9.096;2022-09-09T12:04:55;0.40;;;0.40;;
479;SDS011;226;48.606;9.096;2022-09-09T12:07:28;0.57;;;0.40;;
479;SDS011;226;48.606;9.096;2022-09-09T12:09:58;0.40;;;0.40;;
479;SDS011;226;48.606;9.096;2022-09-09T12:12:28;0.40;;;0.40;;
479;SDS011;226;48.606;9.096;2022-09-09T12:14:59;0.70;;;0.47;;
479;SDS011;226;48.606;9.096;2022-09-09T12:17:28;2.10;;;0.60;;
479;SDS011;226;48.606;9.096;2022-09-09T12:20:02;0.40;;;0.40;;
479;SDS011;226;48.606;9.096;2022-09-09T12:22:37;0.70;;;0.60;;
479;SDS011;226;48.606;9.096;2022-09-09T12:25:08;0.60;;;0.60;;
479;SDS011;226;48.606;9.096;2022-09-09T12:27:44;1.27;;;0.50;;
479;SDS011;226;48.606;9.096;2022-09-09T12:30:14;1.03;;;0.80;;
479;SDS011;226;48.606;9.096;2022-09-09T12:32:42;0.50;;;0.50;;
479;SDS011;226;48.606;9.096;2022-09-09T12:35:12;0.40;;;0.40;;
479;SDS011;226;48.606;9.096;2022-09-09T12:37:44;3.33;;;1.13;;
479;SDS011;226;48.606;9.096;2022-09-09T12:40:19;4.17;;;0.80;;
479;SDS011;226;48.606;9.096;2022-09-09T12:42:47;1.80;;;0.93;;
479;SDS011;226;48.606;9.096;2022-09-09T12:45:17;0.40;;;0.40;;
479;SDS011;226;48.606;9.096;2022-09-09T12:47:46;0.70;;;0.70;;
479;SDS011;226;48.606;9.096;2022-09-09T12:50:16;1.03;;;0.50;;
479;SDS011;226;48.606;9.096;2022-09-09T12:52:47;2.30;;;0.63;;
479;SDS011;226;48.606;9.096;2022-09-09T12:55:17;0.97;;;0.97;;
479;SDS011;226;48.606;9.096;2022-09-09T12:57:46;0.50;;;0.50;;
479;SDS011;226;48.606;9.096;2022-09-09T13:00:17;3.37;;;0.60;;
479;SDS011;226;48.606;9.096;2022-09-09T13:02:48;2.53;;;0.70;;
479;SDS011;226;48.606;9.096;2022-09-09T13:05:18;1.03;;;1.03;;
479;SDS011;226;48.606;9.096;2022-09-09T13:07:48;1.77;;;0.53;;
479;SDS011;226;48.606;9.096;2022-09-09T13:10:20;1.10;;;0.80;;
479;SDS011;226;48.606;9.096;2022-09-09T13:13:02;3.23;;;1.20;;
479;SDS011;226;48.606;9.096;2022-09-09T13:15:31;2.37;;;0.50;;
479;SDS011;226;48.606;9.096;2022-09-09T13:18:00;0.70;;;0.70;;
479;SDS011;226;48.606;9.096;2022-09-09T13:20:29;2.00;;;0.60;;
479;SDS011;226;48.606;9.096;2022-09-09T13:22:58;0.93;;;0.40;;
479;SDS011;226;48.606;9.096;2022-09-09T13:25:27;0.40;;;0.40;;
479;SDS011;226;48.606;9.096;2022-09-09T13:27:57;0.50;;;0.50;;
479;SDS011;226;48.606;9.096;2022-09-09T13:30:27;0.40;;;0.40;;
479;SDS011;226;48.606;9.096;2022-09-09T13:33:00;0.80;;;0.80;;
479;SDS011;226;48.606;9.096;2022-09-09T13:35:28;0.50;;;0.50;;
479;SDS011;226;48.606;9.096;2022-09-09T13:37:58;1.63;;;0.60;;
479;SDS011;226;48.606;9.096;2022-09-09T13:40:27;3.23;;;0.70;;
479;SDS011;226;48.606;9.096;2022-09-09T13:42:56;0.60;;;0.60;;
479;SDS011;226;48.606;9.096;2022-09-09T13:45:25;1.43;;;0.60;;
479;SDS011;226;48.606;9.096;2022-09-09T13:47:54;0.40;;;0.40;;
479;SDS011;226;48.606;9.096;2022-09-09T13:50:23;0.80;;;0.80;;
479;SDS011;226;48.606;9.096;2022-09-09T13:52:52;0.83;;;0.40;;
479;SDS011;226;48.606;9.096;2022-09-09T13:55:23;0.57;;;0.57;;
479;SDS011;226;48.606;9.096;2022-09-09T13:57:51;2.17;;;0.53;;
479;SDS011;226;48.606;9.096;2022-09-09T14:00:20;2.73;;;0.60;;
479;SDS011;226;48.606;9.096;2022-09-09T14:02:48;0.30;;;0.30;;
479;SDS011;226;48.606;9.096;2022-09-09T14:05:17;2.40;;;0.40;;
479;SDS011;226;48.606;9.096;2022-09-09T14:07:45;0.40;;;0.30;;
479;SDS011;226;48.606;9.096;2022-09-09T14:10:18;1.80;;;0.60;;
479;SDS011;226;48.606;9.096;2022-09-09T14:12:48;1.43;;;0.40;;
479;SDS011;226;48.606;9.096;2022-09-09T14:15:16;0.60;;;0.60;;
479;SDS011;226;48.606;9.096;2022-09-09T14:17:45;1.70;;;0.43;;
479;SDS011;226;48.606;9.096;2022-09-09T14:20:14;0.40;;;0.40;;
479;SDS011;226;48.606;9.096;2022-09-09T14:22:43;0.40;;;0.40;;
479;SDS011;226;48.606;9.096;2022-09-09T14:25:11;1.33;;;0.30;;
479;SDS011;226;48.606;9.096;2022-09-09T14:27:40;0.30;;;0.30;;
479;SDS011;226;48.606;9.096;2022-09-09T14:30:10;0.50;;;0.50;;
479;SDS011;226;48.606;9.096;2022-09-09T14:32:38;0.50;;;0.50;;
479;SDS011;226;48.606;9.096;2022-09-09T14:35:07;0.70;;;0.50;;
479;SDS011;226;48.606;9.096;2022-09-09T14:37:35;0.97;;;0.50;;
479;SDS011;226;48.606;9.096;2022-09-09T14:40:05;1.57;;;0.67;;
479;SDS011;226;48.606;9.096;2022-09-09T14:42:34;0.40;;;0.40;;
479;SDS011;226;48.606;9.096;2022-09-09T14:45:03;0.53;;;0.40;;
479;SDS011;226;48.606;9.096;2022-09-09T14:47:32;0.40;;;0.40;;
479;SDS011;226;48.606;9.096;2022-09-09T14:50:01;0.40;;;0.40;;
479;SDS011;226;48.606;9.096;2022-09-09T14:52:31;1.80;;;0.50;;
479;SDS011;226;48.606;9.096;2022-09-09T14:54:59;0.30;;;0.30;;
479;SDS011;226;48.606;9.096;2022-09-09T14:57:27;1.63;;;0.60;;
479;SDS011;226;48.606;9.096;2022-09-09T14:59:56;1.83;;;0.50;;
479;SDS011;226;48.606;9.096;2022-09-09T15:02:24;4.37;;;0.70;;
479;SDS011;226;48.606;9.096;2022-09-09T15:04:54;0.30;;;0.30;;
479;SDS011;226;48.606;9.096;2022-09-09T15:07:23;2.17;;;0.70;;
479;SDS011;226;48.606;9.096;2022-09-09T15:09:51;1.50;;;0.50;;
479;SDS011;226;48.606;9.096;2022-09-09T15:12:20;0.50;;;0.47;;
479;SDS011;226;48.606;9.096;2022-09-09T15:14:48;2.20;;;0.60;;
479;SDS011;226;48.606;9.096;2022-09-09T15:17:18;0.80;;;0.60;;
479;SDS011;226;48.606;9.096;2022-09-09T15:19:46;1.13;;;0.60;;
479;SDS011;226;48.606;9.096;2022-09-09T15:22:17;0.50;;;0.50;;
479;SDS011;226;48.606;9.096;2022-09-09T15:24:46;0.47;;;0.47;;
479;SDS011;226;48.606;9.096;2022-09-09T15:27:14;1.80;;;0.80;;
479;SDS011;226;48.606;9.096;2022-09-09T15:29:43;1.80;;;1.00;;
479;SDS011;226;48.606;9.096;2022-09-09T15:32:11;0.70;;;0.50;;
479;SDS011;226;48.606;9.096;2022-09-09T15:34:39;0.80;;;0.43;;
479;SDS011;226;48.606;9.096;2022-09-09T15:37:09;0.50;;;0.50;;
479;SDS011;226;48.606;9.096;2022-09-09T15:39:40;5.03;;;1.00;;
479;SDS011;226;48.606;9.096;2022-09-09T15:42:08;0.77;;;0.67;;
479;SDS011;226;48.606;9.096;2022-09-09T15:44:40;0.47;;;0.40;;
479;SDS011;226;48.606;9.096;2022-09-09T15:47:10;1.13;;;0.70;;
479;SDS011;226;48.606;9.096;2022-09-09T15:49:39;0.40;;;0.40;;
479;SDS011;226;48.606;9.096;2022-09-09T15:52:08;1.40;;;0.70;;
479;SDS011;226;48.606;9.096;2022-09-09T15:54:37;1.13;;;0.50;;
479;SDS011;226;48.606;9.096;2022-09-09T15:57:09;0.60;;;0.40;;
479;SDS011;226;48.606;9.096;2022-09-09T15:59:38;0.73;;;0.70;;
479;SDS011;226;48.606;9.096;2022-09-09T16:02:08;0.77;;;0.40;;
479;SDS011;226;48.606;9.096;2022-09-09T16:04:37;0.60;;;0.60;;
479;SDS011;226;48.606;9.096;2022-09-09T16:07:05;1.40;;;0.70;;
479;SDS011;226;48.606;9.096;2022-09-09T16:09:34;2.60;;;0.57;;
479;SDS011;226;48.606;9.096;2022-09-09T16:12:02;0.67;;;0.67;;